Time;durP1;ratioP1;P1;durP2;ratioP2;P2;SDS_P1;SDS_P2;PMS_P1;PMS_P2;Temp;Humidity;BMP_temperature;BMP_pressure;BME280_temperature;BME280_humidity;BME280_pressure;Samples;Min_cycle;Max_cycle;Signal;HPM_P1;HPM_P2
2022/07/02 00:00:46;;;;;;;5.93;2.80;;;;;;;17.79;63.72;98121.41;5070528;28;20189;-72
2022/07/02 00:03:15;;;;;;;5.20;2.40;;;;;;;17.83;63.72;98129.84;5070294;28;20208;-72
2022/07/02 00:05:47;;;;;;;6.37;2.47;;;;;;;17.77;64.01;98126.91;5071038;28;20183;-73
2022/07/02 00:08:13;;;;;;;3.17;2.60;;;;;;;17.76;63.72;98119.94;5070113;28;20439;-73
2022/07/02 00:10:39;;;;;;;2.80;2.37;;;;;;;17.75;63.83;98120.94;5069549;28;21373;-74
2022/07/02 00:13:05;;;;;;;6.90;2.80;;;;;;;17.78;63.45;98112.63;5075534;28;20715;-73
2022/07/02 00:15:31;;;;;;;6.37;3.30;;;;;;;17.60;63.95;98117.38;5065345;28;20434;-73
2022/07/02 00:17:56;;;;;;;5.17;3.20;;;;;;;17.55;64.13;98119.75;5063910;28;20498;-71
2022/07/02 00:20:23;;;;;;;4.53;3.50;;;;;;;17.64;63.93;98122.16;5066584;28;20190;-72
2022/07/02 00:22:50;;;;;;;3.70;3.03;;;;;;;17.60;63.93;98120.88;5061473;28;20203;-73
2022/07/02 00:25:15;;;;;;;3.50;2.47;;;;;;;17.57;63.91;98118.56;5065975;28;20440;-74
2022/07/02 00:27:42;;;;;;;3.87;2.53;;;;;;;17.60;64.00;98120.88;5062424;28;20872;-72
2022/07/02 00:30:08;;;;;;;6.70;2.83;;;;;;;17.61;63.64;98116.38;5071019;28;20709;-72
2022/07/02 00:32:35;;;;;;;2.43;2.23;;;;;;;17.54;64.07;98120.75;5064357;28;20532;-73
2022/07/02 00:35:05;;;;;;;2.47;2.27;;;;;;;17.52;64.26;98120.09;5063426;28;20444;-73
2022/07/02 00:37:32;;;;;;;6.20;2.50;;;;;;;17.44;64.46;98123.59;5061877;28;20417;-70
2022/07/02 00:39:57;;;;;;;2.97;2.20;;;;;;;17.44;64.44;98120.97;5061154;28;20480;-71
2022/07/02 00:42:26;;;;;;;3.50;2.47;;;;;;;17.47;64.28;98123.28;5075782;28;20449;-73
2022/07/02 00:44:52;;;;;;;3.93;2.10;;;;;;;17.38;64.61;98116.38;5060364;28;20556;-73
2022/07/02 00:47:19;;;;;;;3.90;2.67;;;;;;;17.42;64.13;98125.59;5070275;28;20460;-73
2022/07/02 00:49:46;;;;;;;4.03;2.43;;;;;;;17.37;64.45;98122.66;5072377;28;20424;-72
2022/07/02 00:52:11;;;;;;;2.73;2.47;;;;;;;17.15;64.97;98119.75;5068762;28;20456;-73
2022/07/02 00:54:38;;;;;;;2.77;2.30;;;;;;;17.12;65.01;98117.47;5072161;28;20455;-72
2022/07/02 00:57:04;;;;;;;3.07;2.57;;;;;;;17.18;64.89;98122.06;5066917;28;20186;-72
2022/07/02 00:59:30;;;;;;;3.67;2.67;;;;;;;17.04;65.70;98128.94;5071850;28;20496;-74
2022/07/02 01:01:56;;;;;;;4.77;2.20;;;;;;;17.09;65.48;98123.94;5071822;28;20494;-73
2022/07/02 01:04:23;;;;;;;2.70;2.20;;;;;;;17.13;65.31;98119.94;5071552;28;20190;-73
2022/07/02 01:06:50;;;;;;;6.77;2.70;;;;;;;17.15;65.28;98122.41;5071632;28;20432;-73
2022/07/02 01:12:01;;;;;;;11.30;2.77;;;;;;;17.23;64.85;98119.75;5079366;28;20462;-73
2022/07/02 01:14:27;;;;;;;2.67;2.47;;;;;;;17.18;64.48;98116.78;5070591;28;20417;-73
2022/07/02 01:16:53;;;;;;;4.07;2.80;;;;;;;17.25;64.71;98115.09;5071597;28;20799;-72
2022/07/02 01:19:20;;;;;;;4.63;2.33;;;;;;;17.28;64.69;98117.38;5071296;28;20460;-73
2022/07/02 01:22:37;;;;;;;7.90;2.50;;;;;;;17.34;64.63;98111.41;5071669;28;20479;-71
2022/07/02 01:25:03;;;;;;;3.10;2.40;;;;;;;17.15;65.02;98098.56;5085873;28;20916;-70
2022/07/02 01:27:29;;;;;;;8.50;2.90;;;;;;;17.13;65.19;98103.25;5085907;28;20436;-71
2022/07/02 01:29:55;;;;;;;2.80;2.20;;;;;;;17.10;64.99;98108.88;5078820;28;20198;-71
2022/07/02 01:32:21;;;;;;;4.93;2.77;;;;;;;17.14;64.91;98104.88;5072049;28;20448;-72
2022/07/02 01:34:53;;;;;;;5.30;2.40;;;;;;;17.21;64.95;98100.56;5070943;28;20190;-72
2022/07/02 01:37:20;;;;;;;6.20;2.50;;;;;;;17.25;64.73;98099.22;5069454;28;20435;-72
2022/07/02 01:39:46;;;;;;;2.93;2.10;;;;;;;17.29;64.53;98097.03;5070922;28;20837;-72
2022/07/02 01:42:12;;;;;;;4.50;2.23;;;;;;;17.33;64.39;98115.06;5078952;28;21054;-72
2022/07/02 01:44:38;;;;;;;6.17;2.70;;;;;;;17.29;64.29;98105.81;5071084;28;20429;-72
2022/07/02 01:47:10;;;;;;;5.43;2.50;;;;;;;17.28;64.49;98103.34;5068482;28;20436;-71
2022/07/02 01:49:37;;;;;;;5.93;2.53;;;;;;;17.30;64.22;98098.69;5068058;28;20954;-73
2022/07/02 01:52:04;;;;;;;3.40;2.60;;;;;;;17.25;64.51;98107.16;5071139;28;20509;-72
2022/07/02 01:54:29;;;;;;;9.70;2.60;;;;;;;17.26;64.60;98098.22;5062988;28;20429;-72
2022/07/02 01:56:56;;;;;;;7.63;2.30;;;;;;;17.17;64.74;98096.59;5066243;28;20443;-72
2022/07/02 01:59:21;;;;;;;2.43;2.23;;;;;;;17.12;64.85;98104.25;5069406;28;20575;-72
2022/07/02 02:01:47;;;;;;;3.23;2.40;;;;;;;17.06;65.07;98102.28;5071021;28;20448;-72
2022/07/02 02:04:13;;;;;;;2.60;2.40;;;;;;;17.09;64.98;98107.22;5070888;28;20186;-73
2022/07/02 02:06:39;;;;;;;4.73;2.60;;;;;;;16.99;65.10;98104.78;5070950;28;20183;-72
2022/07/02 02:09:05;;;;;;;3.00;2.50;;;;;;;17.01;65.03;98100.94;5070613;28;20182;-72
2022/07/02 02:11:31;;;;;;;3.33;2.30;;;;;;;17.01;65.11;98108.88;5072127;28;20478;-72
2022/07/02 02:13:59;;;;;;;4.97;2.40;;;;;;;16.92;65.02;98109.09;5051193;28;20461;-72
2022/07/02 02:16:27;;;;;;;9.07;4.40;;;;;;;16.91;64.87;98105.59;5061633;28;20182;-72
2022/07/02 02:18:54;;;;;;;9.73;3.13;;;;;;;16.87;65.08;98115.72;5066151;28;20491;-73
2022/07/02 02:21:20;;;;;;;2.77;2.57;;;;;;;16.88;65.26;98113.91;5066461;28;21002;-72
2022/07/02 02:23:45;;;;;;;7.33;2.97;;;;;;;16.87;65.43;98118.34;5070905;28;20432;-73
2022/07/02 02:26:11;;;;;;;4.90;2.50;;;;;;;16.90;65.41;98114.53;5068481;28;20213;-72
2022/07/02 02:28:36;;;;;;;8.20;2.83;;;;;;;16.88;65.68;98113.91;5070505;28;20206;-72
2022/07/02 02:31:02;;;;;;;7.87;3.30;;;;;;;16.94;65.18;98105.28;5070951;28;20529;-72
2022/07/02 02:33:27;;;;;;;4.27;2.70;;;;;;;16.98;64.94;98106.63;5070257;28;20315;-73
2022/07/02 02:35:53;;;;;;;7.93;2.80;;;;;;;16.99;64.63;98102.97;5072771;28;20190;-73
2022/07/02 02:38:18;;;;;;;4.87;2.10;;;;;;;16.96;64.45;98102.47;5069862;28;20605;-72
2022/07/02 02:40:44;;;;;;;9.90;2.80;;;;;;;16.89;64.39;98105.78;5070587;28;20840;-73
2022/07/02 02:43:09;;;;;;;4.23;2.37;;;;;;;16.87;64.25;98110.41;5078032;28;20208;-71
2022/07/02 02:45:35;;;;;;;2.63;2.43;;;;;;;16.85;64.41;98104.47;5070289;28;20202;-71
2022/07/02 02:48:00;;;;;;;20.50;2.30;;;;;;;16.84;64.14;98108.09;5063086;28;20190;-73
2022/07/02 02:50:26;;;;;;;3.40;2.70;;;;;;;16.79;64.56;98109.59;5065121;28;20676;-73
2022/07/02 02:52:51;;;;;;;9.00;3.20;;;;;;;16.83;64.51;98110.94;5070404;28;20613;-72
2022/07/02 02:55:18;;;;;;;3.97;2.07;;;;;;;16.83;64.60;98106.44;5069943;28;20222;-72
2022/07/02 02:57:43;;;;;;;3.70;2.47;;;;;;;16.80;64.54;98108.63;5063870;28;20236;-72
2022/07/02 03:00:09;;;;;;;2.50;2.20;;;;;;;16.72;64.58;98107.66;5069579;28;20511;-72
2022/07/02 03:02:35;;;;;;;4.40;2.23;;;;;;;16.73;64.35;98103.16;5070222;28;20198;-72
2022/07/02 03:05:00;;;;;;;3.60;2.30;;;;;;;16.71;64.94;98102.50;5070086;28;20425;-71
2022/07/02 03:07:26;;;;;;;8.00;2.37;;;;;;;16.68;64.36;98105.53;5069800;28;20182;-72
2022/07/02 03:09:51;;;;;;;2.43;2.23;;;;;;;16.55;64.80;98104.22;5070296;28;20560;-71
2022/07/02 03:12:17;;;;;;;3.10;2.20;;;;;;;16.61;64.97;98115.94;5069732;28;20210;-74
2022/07/02 03:14:42;;;;;;;7.23;2.10;;;;;;;16.66;65.02;98112.78;5070146;28;20184;-73
2022/07/02 03:17:08;;;;;;;5.07;2.40;;;;;;;16.70;64.80;98114.94;5069913;28;20189;-73
2022/07/02 03:19:33;;;;;;;7.53;2.63;;;;;;;16.70;64.88;98108.78;5070167;28;20693;-73
2022/07/02 03:21:59;;;;;;;2.80;2.17;;;;;;;16.69;64.93;98117.75;5064605;28;20198;-74
2022/07/02 03:24:24;;;;;;;3.60;2.20;;;;;;;16.66;64.93;98118.09;5068872;28;20182;-73
2022/07/02 03:26:50;;;;;;;3.10;2.00;;;;;;;16.69;64.77;98112.47;5065727;28;20178;-72
2022/07/02 03:29:15;;;;;;;3.73;2.30;;;;;;;16.63;64.73;98113.13;5069737;28;20644;-73
2022/07/02 03:31:40;;;;;;;2.30;2.10;;;;;;;16.61;64.74;98113.31;5073275;28;20198;-73
2022/07/02 03:34:06;;;;;;;3.40;2.30;;;;;;;16.58;64.80;98117.09;5069193;28;20587;-72
2022/07/02 03:36:31;;;;;;;2.40;2.20;;;;;;;16.49;65.11;98114.66;5066502;28;20187;-73
2022/07/02 03:38:57;;;;;;;2.13;1.97;;;;;;;16.55;65.11;98122.75;5062946;28;20325;-72
2022/07/02 03:41:22;;;;;;;4.93;2.83;;;;;;;16.54;65.34;98120.25;5053433;28;20206;-73
2022/07/02 03:43:50;;;;;;;3.13;2.33;;;;;;;16.58;65.05;98119.75;5063729;28;20720;-73
2022/07/02 03:46:16;;;;;;;5.00;2.30;;;;;;;16.57;64.86;98120.72;5064853;28;20193;-72
2022/07/02 03:48:43;;;;;;;2.93;2.47;;;;;;;16.56;65.09;98120.91;5072865;28;20425;-71
2022/07/02 03:51:08;;;;;;;2.83;2.60;;;;;;;16.59;65.30;98115.28;5072234;28;20804;-71
2022/07/02 03:53:34;;;;;;;2.53;2.23;;;;;;;16.63;65.20;98121.06;5072974;28;20435;-72
2022/07/02 03:55:59;;;;;;;3.57;2.20;;;;;;;16.63;65.22;98131.66;5071255;28;20186;-71
2022/07/02 03:58:25;;;;;;;2.50;2.30;;;;;;;16.57;65.25;98133.97;5070593;28;20210;-71
2022/07/02 04:00:50;;;;;;;8.33;2.60;;;;;;;16.47;65.39;98148.38;5071294;28;20189;-72
2022/07/02 04:03:16;;;;;;;5.43;2.53;;;;;;;16.39;65.44;98138.63;5071683;28;20677;-71
2022/07/02 04:05:41;;;;;;;5.40;2.30;;;;;;;16.42;65.34;98139.13;5072852;28;20224;-71
2022/07/02 04:08:07;;;;;;;2.70;2.40;;;;;;;16.43;65.36;98134.66;5071767;28;20236;-72
2022/07/02 04:10:32;;;;;;;2.80;2.40;;;;;;;16.50;65.58;98140.13;5072313;28;20186;-72
2022/07/02 04:12:58;;;;;;;6.80;2.77;;;;;;;16.54;65.70;98131.69;5074125;28;20225;-73
2022/07/02 04:15:23;;;;;;;6.63;2.20;;;;;;;16.52;65.57;98133.66;5073058;28;20182;-73
2022/07/02 04:17:49;;;;;;;4.27;2.70;;;;;;;16.47;66.04;98146.56;5072123;28;20174;-73
2022/07/02 04:20:14;;;;;;;3.87;2.20;;;;;;;16.48;66.39;98140.28;5071819;28;20632;-73
2022/07/02 04:22:40;;;;;;;3.60;2.60;;;;;;;16.57;66.18;98136.63;5066140;28;20289;-72
2022/07/02 04:25:06;;;;;;;5.53;2.90;;;;;;;16.67;65.94;98141.72;5070385;28;20182;-71
2022/07/02 04:27:32;;;;;;;2.80;2.60;;;;;;;16.80;65.88;98140.38;5071668;28;20182;-72
2022/07/02 04:29:57;;;;;;;3.03;2.80;;;;;;;16.76;66.09;98141.72;5071725;28;20477;-72
2022/07/02 04:32:23;;;;;;;6.83;3.07;;;;;;;16.84;65.90;98139.88;5071727;28;20211;-72
2022/07/02 04:34:48;;;;;;;3.83;2.83;;;;;;;16.90;66.10;98143.66;5071955;28;20277;-72
2022/07/02 04:37:13;;;;;;;4.37;3.30;;;;;;;16.97;66.30;98141.19;5071723;28;20220;-72
2022/07/02 04:39:39;;;;;;;8.80;3.87;;;;;;;17.04;66.57;98145.63;5071060;28;20213;-74
2022/07/02 04:42:05;;;;;;;4.80;4.03;;;;;;;17.12;66.61;98136.84;5071452;28;20206;-71
2022/07/02 04:44:30;;;;;;;6.70;5.03;;;;;;;17.18;66.68;98135.31;5070726;28;20186;-71
2022/07/02 04:46:56;;;;;;;4.73;4.37;;;;;;;17.28;67.25;98137.78;5070886;28;20213;-72
2022/07/02 04:49:22;;;;;;;7.60;4.90;;;;;;;17.33;66.89;98135.41;5069814;28;20261;-71
2022/07/02 04:51:48;;;;;;;5.80;5.23;;;;;;;17.38;66.88;98142.88;5071417;28;20817;-73
2022/07/02 04:54:13;;;;;;;6.40;4.43;;;;;;;17.38;66.99;98142.88;5066670;28;20461;-71
2022/07/02 04:56:39;;;;;;;8.33;5.47;;;;;;;17.41;67.11;98142.50;5071268;28;20436;-72
2022/07/02 04:59:04;;;;;;;7.80;5.40;;;;;;;17.43;67.16;98129.91;5070859;28;20213;-72
2022/07/02 05:01:30;;;;;;;6.00;5.13;;;;;;;17.49;67.27;98132.69;5071354;28;20588;-72
2022/07/02 05:03:56;;;;;;;5.70;5.20;;;;;;;17.46;67.56;98140.16;5071503;28;20186;-71
2022/07/02 05:06:21;;;;;;;5.23;4.80;;;;;;;17.50;67.72;98133.53;5070529;28;20242;-71
2022/07/02 05:08:50;;;;;;;6.30;5.00;;;;;;;17.55;67.72;98139.13;5071091;28;20178;-73
2022/07/02 05:11:19;;;;;;;5.73;5.00;;;;;;;17.54;67.67;98142.75;5071174;28;20210;-72
2022/07/02 05:13:45;;;;;;;6.40;5.33;;;;;;;17.61;67.76;98138.44;5071654;28;20871;-72
2022/07/02 05:16:11;;;;;;;5.53;5.13;;;;;;;17.68;67.42;98140.38;5070897;28;20494;-71
2022/07/02 05:18:36;;;;;;;5.13;4.60;;;;;;;17.74;67.35;98150.28;5070653;28;20839;-72
2022/07/02 05:21:02;;;;;;;5.33;4.20;;;;;;;17.78;67.49;98143.63;5065346;28;20188;-72
2022/07/02 05:23:27;;;;;;;5.17;4.50;;;;;;;17.87;67.50;98137.28;5069786;28;20239;-72
2022/07/02 05:25:53;;;;;;;5.30;4.37;;;;;;;17.88;67.06;98138.94;5071114;28;20518;-71
2022/07/02 05:28:18;;;;;;;4.77;4.23;;;;;;;17.91;66.97;98138.56;5070153;28;20185;-73
2022/07/02 05:30:44;;;;;;;4.37;3.93;;;;;;;18.06;66.75;98141.31;5075000;28;20589;-72
2022/07/02 05:33:09;;;;;;;7.00;4.10;;;;;;;18.21;66.45;98146.66;5069660;28;20705;-71
2022/07/02 05:35:35;;;;;;;4.33;3.93;;;;;;;18.34;66.21;98147.88;5071762;28;20212;-73
2022/07/02 05:38:00;;;;;;;5.20;4.10;;;;;;;18.40;65.66;98150.66;5070137;28;20183;-71
2022/07/02 05:40:26;;;;;;;3.23;2.93;;;;;;;18.54;65.89;98153.50;5069147;28;20620;-72
2022/07/02 05:42:51;;;;;;;3.93;3.53;;;;;;;18.68;66.16;98146.56;5078149;28;20201;-73
2022/07/02 05:45:17;;;;;;;4.10;3.37;;;;;;;18.79;65.63;98150.63;5063583;28;20182;-72
2022/07/02 05:47:42;;;;;;;4.17;3.33;;;;;;;18.94;65.53;98155.97;5070309;28;20182;-72
2022/07/02 05:50:08;;;;;;;2.93;2.63;;;;;;;19.08;65.58;98149.81;5070340;28;20185;-73
2022/07/02 05:52:34;;;;;;;3.13;2.83;;;;;;;19.19;64.41;98148.53;5070436;28;20217;-73
2022/07/02 05:55:00;;;;;;;5.23;3.00;;;;;;;19.32;64.59;98148.72;5033865;28;20422;-73
2022/07/02 05:57:25;;;;;;;4.27;2.90;;;;;;;19.40;62.95;98146.94;5060681;28;20191;-73
2022/07/02 05:59:51;;;;;;;4.17;3.00;;;;;;;19.53;63.22;98140.97;5069499;28;20247;-72
2022/07/02 06:02:16;;;;;;;3.30;2.43;;;;;;;19.66;63.05;98151.72;5070720;28;20291;-73
2022/07/02 06:04:42;;;;;;;3.07;2.60;;;;;;;19.70;62.51;98146.88;5075380;28;20670;-74
2022/07/02 06:09:51;;;;;;;2.77;2.57;;;;;;;19.99;61.68;98153.13;5079489;28;20204;-70
2022/07/02 06:12:17;;;;;;;3.53;2.17;;;;;;;20.11;61.50;98154.25;5073326;28;20456;-72
2022/07/02 06:14:43;;;;;;;2.00;1.90;;;;;;;20.21;60.46;98151.28;5071043;28;20190;-72
2022/07/02 06:17:10;;;;;;;2.60;2.40;;;;;;;20.30;59.82;98144.81;5070691;28;20429;-73
2022/07/02 06:19:36;;;;;;;3.33;2.03;;;;;;;20.37;59.08;98155.50;5052823;28;20251;-73
2022/07/02 06:22:01;;;;;;;4.53;2.20;;;;;;;20.47;58.96;98153.38;5047785;28;20851;-72
2022/07/02 06:24:27;;;;;;;4.03;2.33;;;;;;;20.52;58.52;98145.59;5070797;28;20179;-73
2022/07/02 06:26:52;;;;;;;5.17;1.80;;;;;;;20.63;57.91;98154.91;5070334;28;20645;-73
2022/07/02 06:29:18;;;;;;;2.20;2.00;;;;;;;20.69;57.91;98151.47;5051293;28;20186;-72
2022/07/02 06:31:43;;;;;;;2.13;2.00;;;;;;;20.82;58.28;98150.75;5074613;28;20665;-72
2022/07/02 06:34:09;;;;;;;2.60;1.53;;;;;;;20.93;58.15;98141.38;5069802;28;20285;-71
2022/07/02 06:36:34;;;;;;;3.40;1.63;;;;;;;21.06;57.67;98148.66;5072706;28;20604;-72
2022/07/02 06:39:00;;;;;;;4.13;1.70;;;;;;;21.12;56.83;98144.38;5069324;28;20233;-72
2022/07/02 06:44:10;;;;;;;2.10;1.93;;;;;;;21.26;55.45;98142.56;5070078;28;20669;-71
2022/07/02 06:46:36;;;;;;;4.50;2.07;;;;;;;21.14;55.27;98134.34;5070116;28;20505;-72
2022/07/02 06:49:01;;;;;;;2.80;1.43;;;;;;;21.12;56.17;98136.38;5070364;28;20630;-72
2022/07/02 06:51:27;;;;;;;2.83;1.50;;;;;;;21.39;56.19;98144.50;5070126;28;20444;-72
2022/07/02 06:53:55;;;;;;;1.60;1.27;;;;;;;21.57;55.41;98128.75;5071226;28;20191;-72
2022/07/02 06:56:21;;;;;;;2.73;1.47;;;;;;;21.73;54.79;98129.44;5067760;28;20201;-71
2022/07/02 06:58:46;;;;;;;2.33;1.43;;;;;;;21.89;54.12;98129.06;5068266;28;20456;-75
2022/07/02 07:01:12;;;;;;;4.20;1.07;;;;;;;22.04;53.55;98128.88;5078212;28;20273;-74
2022/07/02 07:03:37;;;;;;;1.97;1.10;;;;;;;22.22;53.31;98130.94;5069026;28;20186;-75
2022/07/02 07:06:03;;;;;;;2.70;1.30;;;;;;;22.38;52.78;98134.22;5069520;28;20202;-74
2022/07/02 07:08:29;;;;;;;2.20;0.97;;;;;;;22.50;51.58;98129.94;5060306;28;20191;-73
2022/07/02 07:10:54;;;;;;;3.73;1.10;;;;;;;22.61;51.27;98136.50;5029034;28;20269;-73
2022/07/02 07:13:20;;;;;;;2.90;1.13;;;;;;;22.67;50.34;98146.34;5069006;28;20217;-72
2022/07/02 07:15:46;;;;;;;5.03;1.23;;;;;;;22.74;50.49;98153.56;5063756;28;20191;-71
2022/07/02 07:18:12;;;;;;;6.37;1.33;;;;;;;22.86;50.17;98142.00;5065510;28;20197;-73
2022/07/02 07:20:38;;;;;;;2.80;1.30;;;;;;;22.87;49.09;98137.50;5063495;28;20187;-71
2022/07/02 07:23:03;;;;;;;1.20;1.10;;;;;;;23.05;49.40;98133.31;5070135;28;20849;-71
2022/07/02 07:25:30;;;;;;;1.63;1.17;;;;;;;23.17;49.30;98137.81;5073090;28;20261;-72
2022/07/02 07:27:56;;;;;;;2.60;1.10;;;;;;;23.23;48.25;98130.00;5073579;28;20189;-71
2022/07/02 07:30:21;;;;;;;1.63;1.10;;;;;;;23.29;47.41;98131.84;5077408;28;20420;-72
2022/07/02 07:32:47;;;;;;;1.20;1.10;;;;;;;23.33;47.61;98132.22;5073785;28;20688;-73
2022/07/02 07:35:12;;;;;;;1.83;1.10;;;;;;;23.49;48.03;98126.41;5074229;28;20218;-72
2022/07/02 07:37:38;;;;;;;1.30;0.77;;;;;;;23.66;48.39;98129.41;5073338;28;20771;-73
2022/07/02 07:40:05;;;;;;;3.37;1.07;;;;;;;23.81;48.05;98125.59;5072047;28;20264;-72
2022/07/02 07:42:31;;;;;;;1.33;1.10;;;;;;;23.78;47.58;98132.19;5073421;28;20680;-72
2022/07/02 07:44:57;;;;;;;1.93;0.90;;;;;;;23.91;46.58;98128.63;5071992;28;20432;-73
2022/07/02 07:47:22;;;;;;;1.60;1.00;;;;;;;24.01;46.18;98123.63;5075837;28;20186;-72
2022/07/02 07:49:48;;;;;;;1.47;1.10;;;;;;;24.08;45.65;98121.72;5074558;28;20266;-73
2022/07/02 07:52:13;;;;;;;1.40;1.00;;;;;;;24.13;45.54;98123.75;5073057;28;20245;-73
2022/07/02 07:54:39;;;;;;;1.40;0.90;;;;;;;24.08;45.37;98124.41;5073170;28;20225;-73
2022/07/02 07:57:05;;;;;;;1.50;0.87;;;;;;;24.21;44.92;98128.00;5070958;28;20323;-72
2022/07/02 07:59:31;;;;;;;2.60;1.10;;;;;;;24.30;44.92;98124.03;5070777;28;20199;-73
2022/07/02 08:01:57;;;;;;;2.07;0.80;;;;;;;24.42;44.95;98124.13;5073043;28;20447;-72
2022/07/02 08:04:22;;;;;;;1.00;0.90;;;;;;;24.54;44.51;98118.88;5071515;28;20190;-73
2022/07/02 08:06:48;;;;;;;1.93;0.90;;;;;;;24.61;43.67;98111.59;5072887;28;20548;-73
2022/07/02 08:09:13;;;;;;;1.00;0.80;;;;;;;24.72;43.50;98117.28;5072768;28;20197;-73
2022/07/02 08:11:39;;;;;;;1.07;0.97;;;;;;;24.86;42.63;98102.72;5055768;28;20210;-72
2022/07/02 08:14:05;;;;;;;3.10;0.80;;;;;;;24.96;41.64;98103.00;5052302;28;20203;-72
2022/07/02 08:16:31;;;;;;;2.60;0.90;;;;;;;25.04;41.02;98098.41;5052417;28;20179;-73
2022/07/02 08:18:56;;;;;;;1.27;1.10;;;;;;;25.14;41.50;98104.03;5060889;28;20215;-72
2022/07/02 08:21:22;;;;;;;1.10;0.83;;;;;;;25.21;40.09;98103.97;5063525;28;20456;-73
2022/07/02 08:23:48;;;;;;;1.80;0.73;;;;;;;25.26;39.72;98102.25;5072916;28;20179;-72
2022/07/02 08:26:13;;;;;;;1.33;0.80;;;;;;;25.33;39.24;98104.84;5053874;28;20649;-72
2022/07/02 08:28:39;;;;;;;1.20;0.83;;;;;;;25.45;39.39;98100.38;5054664;28;20179;-72
2022/07/02 08:31:04;;;;;;;0.90;0.70;;;;;;;25.48;38.87;98096.41;5075912;28;20186;-71
2022/07/02 08:33:30;;;;;;;1.27;0.80;;;;;;;25.39;39.17;98103.13;5072664;28;20197;-72
2022/07/02 08:35:55;;;;;;;1.53;0.90;;;;;;;25.51;39.40;98090.59;5074793;28;20236;-73
2022/07/02 08:38:21;;;;;;;1.63;0.97;;;;;;;25.67;39.56;98102.53;5072731;28;20190;-72
2022/07/02 08:40:47;;;;;;;1.10;0.80;;;;;;;25.76;39.20;98100.34;5066772;28;20260;-73
2022/07/02 08:43:13;;;;;;;1.43;0.70;;;;;;;25.86;39.35;98095.25;5068035;28;20198;-73
2022/07/02 08:45:42;;;;;;;1.30;0.80;;;;;;;26.01;39.82;98091.31;5058185;28;20178;-72
2022/07/02 08:48:09;;;;;;;2.50;1.33;;;;;;;25.80;38.80;98084.59;5060925;28;20990;-73
2022/07/02 08:50:36;;;;;;;1.60;0.97;;;;;;;25.95;39.75;98070.75;5062181;28;20429;-74
2022/07/02 08:53:05;;;;;;;1.40;0.80;;;;;;;25.37;39.37;98064.97;5064177;28;20437;-74
2022/07/02 08:55:32;;;;;;;4.40;0.80;;;;;;;25.81;40.19;98064.78;5055327;28;20451;-73
2022/07/02 08:57:59;;;;;;;1.63;0.70;;;;;;;25.86;38.36;98065.72;5056618;28;20428;-74
2022/07/02 09:00:25;;;;;;;1.00;0.80;;;;;;;26.08;38.66;98067.88;5062704;28;21214;-74
2022/07/02 09:02:51;;;;;;;5.10;0.83;;;;;;;26.20;38.94;98073.25;5061933;28;20452;-74
2022/07/02 09:05:18;;;;;;;0.90;0.70;;;;;;;26.34;38.59;98072.00;5064450;28;20578;-75
2022/07/02 09:07:45;;;;;;;1.93;0.73;;;;;;;26.46;38.62;98058.56;5064999;28;20428;-74
2022/07/02 09:10:10;;;;;;;3.23;0.83;;;;;;;26.53;36.71;98050.34;5062517;28;20783;-74
2022/07/02 09:12:38;;;;;;;1.47;0.70;;;;;;;26.65;37.53;98048.47;5066784;28;20440;-74
2022/07/02 09:15:04;;;;;;;0.90;0.70;;;;;;;26.75;36.38;98037.09;5060528;28;20201;-75
2022/07/02 09:17:30;;;;;;;2.80;0.80;;;;;;;26.84;35.52;98034.91;5066808;28;20425;-74
2022/07/02 09:19:56;;;;;;;1.40;0.90;;;;;;;26.89;34.83;98035.03;5063352;28;20460;-73
2022/07/02 09:22:33;;;;;;;5.93;0.80;;;;;;;27.02;36.34;98036.59;5063438;28;20474;-74
2022/07/02 09:25:16;;;;;;;3.17;1.07;;;;;;;27.07;36.02;98036.72;5070380;28;20186;-74
2022/07/02 09:27:43;;;;;;;1.17;0.80;;;;;;;27.10;34.72;98046.16;5068586;28;20779;-73
2022/07/02 09:30:11;;;;;;;1.10;0.83;;;;;;;27.08;34.00;98041.03;5075294;28;20906;-74
2022/07/02 09:32:46;;;;;;;1.60;0.90;;;;;;;27.15;34.19;98046.28;5074481;28;20449;-73
2022/07/02 09:35:22;;;;;;;0.90;0.60;;;;;;;27.32;34.95;98040.94;5071241;28;20441;-74
2022/07/02 09:37:49;;;;;;;2.80;0.80;;;;;;;27.37;33.53;98048.28;5070387;28;20435;-74
2022/07/02 09:40:16;;;;;;;1.00;0.80;;;;;;;27.36;32.45;98044.75;5080083;28;20510;-74
2022/07/02 09:42:46;;;;;;;1.17;0.83;;;;;;;27.29;33.45;98055.69;5079333;28;20456;-73
2022/07/02 09:45:12;;;;;;;1.20;0.80;;;;;;;27.18;31.99;98053.84;5071199;28;20429;-73
2022/07/02 09:47:48;;;;;;;1.00;0.80;;;;;;;27.44;33.18;98049.81;5069656;28;20475;-73
2022/07/02 09:50:14;;;;;;;3.23;0.80;;;;;;;27.64;32.89;98048.53;5071792;28;20432;-73
2022/07/02 09:53:10;;;;;;;0.93;0.60;;;;;;;27.83;32.62;98053.69;5053521;28;20475;-73
2022/07/02 09:55:36;;;;;;;1.20;0.90;;;;;;;27.98;30.86;98055.81;5062896;28;20911;-73
2022/07/02 09:58:02;;;;;;;1.23;0.70;;;;;;;28.10;30.60;98058.47;5070700;28;20558;-74
2022/07/02 10:00:34;;;;;;;1.00;0.67;;;;;;;28.08;30.84;98064.03;5079013;28;20202;-74
2022/07/02 10:03:00;;;;;;;4.93;1.47;;;;;;;28.10;31.28;98055.78;5070848;28;20448;-73
2022/07/02 10:05:33;;;;;;;9.60;0.80;;;;;;;28.05;30.17;98056.44;5070532;28;20512;-72
2022/07/02 10:08:01;;;;;;;0.90;0.70;;;;;;;28.04;30.56;98047.56;5070465;28;20456;-73
2022/07/02 10:10:39;;;;;;;1.90;0.90;;;;;;;28.07;29.78;98042.75;5070373;28;20444;-73
2022/07/02 10:13:10;;;;;;;1.20;0.70;;;;;;;28.03;30.40;98034.34;5072742;28;20458;-73
2022/07/02 10:15:39;;;;;;;1.13;0.60;;;;;;;28.13;31.40;98028.31;5071312;28;20442;-73
2022/07/02 10:18:05;;;;;;;1.67;0.77;;;;;;;28.12;31.35;98029.38;5061117;28;20433;-72
2022/07/02 10:20:32;;;;;;;3.93;0.87;;;;;;;28.11;30.88;98030.44;5059058;28;20472;-74
2022/07/02 10:22:59;;;;;;;1.30;0.70;;;;;;;28.18;30.89;98031.09;5059490;28;20525;-73
2022/07/02 10:25:25;;;;;;;0.83;0.60;;;;;;;28.39;30.66;98031.38;5066667;28;20420;-73
2022/07/02 10:27:57;;;;;;;1.30;0.60;;;;;;;28.56;30.92;98021.38;5059552;28;20429;-74
2022/07/02 10:30:27;;;;;;;1.30;0.70;;;;;;;28.62;30.34;98031.16;5068105;28;20182;-74
2022/07/02 10:33:18;;;;;;;1.50;0.83;;;;;;;28.60;30.17;98038.69;5060360;28;20711;-73
2022/07/02 10:35:45;;;;;;;1.30;0.80;;;;;;;28.54;30.29;98036.97;5061146;28;20507;-73
2022/07/02 10:38:10;;;;;;;2.33;0.90;;;;;;;28.65;30.42;98035.25;5049480;28;20527;-72
2022/07/02 10:40:49;;;;;;;1.10;1.00;;;;;;;28.15;30.97;98026.19;5063841;28;21052;-73
2022/07/02 10:43:18;;;;;;;3.27;0.80;;;;;;;28.40;30.51;98023.06;5063201;28;20214;-72
2022/07/02 10:45:44;;;;;;;1.47;0.93;;;;;;;28.33;30.17;98017.84;5063025;28;20428;-73
2022/07/02 10:48:11;;;;;;;1.00;0.80;;;;;;;28.46;30.43;98015.84;5067016;28;20434;-72
2022/07/02 10:50:38;;;;;;;3.13;0.70;;;;;;;28.51;30.24;98018.59;5061118;28;20433;-73
2022/07/02 10:53:11;;;;;;;1.40;0.63;;;;;;;28.58;30.34;98019.25;5066869;28;20453;-73
2022/07/02 10:55:38;;;;;;;2.50;0.60;;;;;;;28.77;30.16;98010.88;5075015;28;20444;-73
2022/07/02 10:58:05;;;;;;;1.60;0.80;;;;;;;29.02;30.73;98006.84;5077823;28;20819;-74
2022/07/02 11:00:38;;;;;;;1.00;0.60;;;;;;;29.18;29.61;98002.41;5068399;28;20472;-74
2022/07/02 11:03:24;;;;;;;1.00;0.70;;;;;;;29.18;29.69;98005.09;5064013;28;20467;-74
2022/07/02 11:06:00;;;;;;;1.17;0.60;;;;;;;29.25;28.82;98001.13;5067488;28;20937;-74
2022/07/02 11:08:31;;;;;;;2.27;0.77;;;;;;;29.23;29.46;98003.31;5060990;28;20980;-74
2022/07/02 11:10:56;;;;;;;1.60;0.93;;;;;;;29.32;28.32;97994.72;5070762;28;20469;-74
2022/07/02 11:13:22;;;;;;;0.90;0.60;;;;;;;29.29;28.83;97996.06;5064611;28;22401;-74
2022/07/02 11:15:48;;;;;;;0.90;0.70;;;;;;;29.46;29.62;97998.69;5048218;28;20183;-73
2022/07/02 11:18:14;;;;;;;1.00;0.70;;;;;;;29.63;29.58;97997.72;5066836;28;20206;-74
2022/07/02 11:20:40;;;;;;;1.30;0.70;;;;;;;29.50;28.15;97991.69;5059952;28;20709;-73
2022/07/02 11:23:05;;;;;;;3.00;0.60;;;;;;;29.66;29.26;97984.53;5070657;28;20542;-74
2022/07/02 11:25:31;;;;;;;1.43;0.70;;;;;;;29.74;28.51;97985.91;5073075;28;20269;-74
2022/07/02 11:28:02;;;;;;;1.40;0.70;;;;;;;29.46;27.48;97977.09;5073662;28;20182;-76
2022/07/02 11:30:29;;;;;;;1.50;1.10;;;;;;;29.00;28.16;97973.88;5077914;28;20432;-73
2022/07/02 11:32:55;;;;;;;1.10;1.00;;;;;;;29.25;29.50;97976.03;5073499;28;20452;-72
2022/07/02 11:35:21;;;;;;;0.90;0.60;;;;;;;29.35;28.58;97978.88;5077049;28;20420;-74
2022/07/02 11:37:46;;;;;;;2.20;0.70;;;;;;;29.49;28.45;97983.84;5073663;28;20221;-74
2022/07/02 11:40:21;;;;;;;0.90;0.70;;;;;;;29.57;28.57;97970.69;5073927;28;20233;-74